sensor_id;sensor_type;location;lat;lon;timestamp;pressure;altitude;pressure_sealevel;temperature;humidity
51972;BME280;37991;49.662;10.060;2022-09-16T00:01:16;98683.31;;;13.05;100.00
51972;BME280;37991;49.662;10.060;2022-09-16T00:03:42;98682.59;;;13.03;100.00
51972;BME280;37991;49.662;10.060;2022-09-16T00:06:25;98684.53;;;13.01;100.00
51972;BME280;37991;49.662;10.060;2022-09-16T00:08:51;98684.97;;;12.96;100.00
51972;BME280;37991;49.662;10.060;2022-09-16T00:11:18;98684.81;;;12.98;100.00
51972;BME280;37991;49.662;10.060;2022-09-16T00:13:44;98686.34;;;13.00;100.00
51972;BME280;37991;49.662;10.060;2022-09-16T00:16:12;98691.03;;;12.97;100.00
51972;BME280;37991;49.662;10.060;2022-09-16T00:18:40;98688.69;;;12.94;100.00
51972;BME280;37991;49.662;10.060;2022-09-16T00:21:07;98692.16;;;12.94;100.00
51972;BME280;37991;49.662;10.060;2022-09-16T00:23:34;98691.31;;;12.94;100.00
51972;BME280;37991;49.662;10.060;2022-09-16T00:25:59;98692.28;;;12.93;100.00
51972;BME280;37991;49.662;10.060;2022-09-16T00:28:24;98690.50;;;12.93;100.00
51972;BME280;37991;49.662;10.060;2022-09-16T00:30:50;98685.34;;;12.92;100.00
51972;BME280;37991;49.662;10.060;2022-09-16T00:33:16;98680.81;;;12.94;100.00
51972;BME280;37991;49.662;10.060;2022-09-16T00:35:42;98681.09;;;12.91;100.00
51972;BME280;37991;49.662;10.060;2022-09-16T00:38:07;98681.09;;;12.91;100.00
51972;BME280;37991;49.662;10.060;2022-09-16T00:40:33;98680.66;;;12.86;100.00
51972;BME280;37991;49.662;10.060;2022-09-16T00:42:58;98672.38;;;12.80;100.00
51972;BME280;37991;49.662;10.060;2022-09-16T00:45:25;98683.56;;;12.83;100.00
51972;BME280;37991;49.662;10.060;2022-09-16T00:48:04;98674.16;;;12.80;100.00
51972;BME280;37991;49.662;10.060;2022-09-16T00:50:36;98679.97;;;12.84;100.00
51972;BME280;37991;49.662;10.060;2022-09-16T00:53:06;98684.81;;;12.88;100.00
51972;BME280;37991;49.662;10.060;2022-09-16T00:55:35;98685.50;;;12.90;100.00
51972;BME280;37991;49.662;10.060;2022-09-16T00:58:07;98687.16;;;12.91;100.00
51972;BME280;37991;49.662;10.060;2022-09-16T01:00:36;98687.44;;;12.88;100.00
51972;BME280;37991;49.662;10.060;2022-09-16T01:03:03;98690.50;;;12.84;100.00
51972;BME280;37991;49.662;10.060;2022-09-16T01:05:28;98693.53;;;12.89;100.00
51972;BME280;37991;49.662;10.060;2022-09-16T01:07:54;98694.50;;;12.88;100.00
51972;BME280;37991;49.662;10.060;2022-09-16T01:10:21;98689.41;;;12.86;100.00
51972;BME280;37991;49.662;10.060;2022-09-16T01:12:51;98691.88;;;12.88;100.00
51972;BME280;37991;49.662;10.060;2022-09-16T01:15:17;98696.16;;;12.89;100.00
51972;BME280;37991;49.662;10.060;2022-09-16T01:31:47;98696.84;;;12.91;100.00
51972;BME280;37991;49.662;10.060;2022-09-16T01:34:27;98693.66;;;12.87;100.00
51972;BME280;37991;49.662;10.060;2022-09-16T01:40:01;98687.16;;;12.91;100.00
51972;BME280;37991;49.662;10.060;2022-09-16T01:42:44;98690.78;;;12.90;100.00
51972;BME280;37991;49.662;10.060;2022-09-16T01:45:25;98685.63;;;12.89;100.00
51972;BME280;37991;49.662;10.060;2022-09-16T01:50:44;98679.81;;;12.85;100.00
51972;BME280;37991;49.662;10.060;2022-09-16T01:55:51;98687.16;;;12.91;100.00
51972;BME280;37991;49.662;10.060;2022-09-16T01:58:25;98682.34;;;12.87;100.00
51972;BME280;37991;49.662;10.060;2022-09-16T02:01:00;98690.78;;;12.90;100.00
51972;BME280;37991;49.662;10.060;2022-09-16T02:03:30;98683.16;;;12.87;100.00
51972;BME280;37991;49.662;10.060;2022-09-16T02:06:02;98685.78;;;12.87;100.00
51972;BME280;37991;49.662;10.060;2022-09-16T02:08:33;98685.50;;;12.90;100.00
51972;BME280;37991;49.662;10.060;2022-09-16T02:11:04;98689.13;;;12.89;100.00
51972;BME280;37991;49.662;10.060;2022-09-16T02:13:35;98685.50;;;12.90;100.00
51972;BME280;37991;49.662;10.060;2022-09-16T02:16:10;98682.44;;;12.85;100.00
51972;BME280;37991;49.662;10.060;2022-09-16T02:18:40;98680.81;;;12.94;100.00
51972;BME280;37991;49.662;10.060;2022-09-16T02:21:10;98674.72;;;12.93;100.00
51972;BME280;37991;49.662;10.060;2022-09-16T02:23:49;98670.72;;;12.89;100.00
51972;BME280;37991;49.662;10.060;2022-09-16T02:26:18;98675.28;;;12.87;100.00
51972;BME280;37991;49.662;10.060;2022-09-16T02:28:46;98674.44;;;12.87;100.00
51972;BME280;37991;49.662;10.060;2022-09-16T02:31:14;98671.38;;;12.82;100.00
51972;BME280;37991;49.662;10.060;2022-09-16T02:33:46;98682.06;;;12.80;100.00
51972;BME280;37991;49.662;10.060;2022-09-16T02:36:16;98681.78;;;12.83;100.00
51972;BME280;37991;49.662;10.060;2022-09-16T02:38:47;98673.75;;;12.85;100.00
51972;BME280;37991;49.662;10.060;2022-09-16T02:41:13;98676.38;;;12.85;100.00
51972;BME280;37991;49.662;10.060;2022-09-16T02:43:44;98679.16;;;12.83;100.00
51972;BME280;37991;49.662;10.060;2022-09-16T02:46:27;98675.13;;;12.79;100.00
51972;BME280;37991;49.662;10.060;2022-09-16T02:49:11;98675.53;;;12.74;100.00
51972;BME280;37991;49.662;10.060;2022-09-16T02:56:53;98674.84;;;12.72;100.00
51972;BME280;37991;49.662;10.060;2022-09-16T02:59:20;98668.63;;;12.73;100.00
51972;BME280;37991;49.662;10.060;2022-09-16T03:01:46;98671.66;;;12.69;100.00
51972;BME280;37991;49.662;10.060;2022-09-16T03:04:15;98672.63;;;12.68;100.00
51972;BME280;37991;49.662;10.060;2022-09-16T03:06:41;98669.84;;;12.69;100.00
51972;BME280;37991;49.662;10.060;2022-09-16T03:09:09;98665.72;;;12.76;100.00
51972;BME280;37991;49.662;10.060;2022-09-16T03:22:52;98688.69;;;12.74;100.00
51972;BME280;37991;49.662;10.060;2022-09-16T03:27:59;98686.88;;;12.75;100.00
51972;BME280;37991;49.662;10.060;2022-09-16T03:30:30;98677.34;;;12.74;100.00
51972;BME280;37991;49.662;10.060;2022-09-16T03:32:59;98670.84;;;12.78;100.00
51972;BME280;37991;49.662;10.060;2022-09-16T03:35:32;98672.75;;;12.76;100.00
51972;BME280;37991;49.662;10.060;2022-09-16T03:37:59;98670.00;;;12.77;100.00
51972;BME280;37991;49.662;10.060;2022-09-16T03:40:28;98671.25;;;12.73;100.00
51972;BME280;37991;49.662;10.060;2022-09-16T03:42:54;98668.06;;;12.70;100.00
51972;BME280;37991;49.662;10.060;2022-09-16T03:45:22;98661.03;;;12.70;100.00
51972;BME280;37991;49.662;10.060;2022-09-16T03:47:49;98656.59;;;12.71;100.00
51972;BME280;37991;49.662;10.060;2022-09-16T03:50:15;98651.72;;;12.66;100.00
51972;BME280;37991;49.662;10.060;2022-09-16T03:52:41;98655.50;;;12.64;100.00
51972;BME280;37991;49.662;10.060;2022-09-16T03:55:07;98648.44;;;12.64;100.00
51972;BME280;37991;49.662;10.060;2022-09-16T03:57:34;98645.25;;;12.61;100.00
51972;BME280;37991;49.662;10.060;2022-09-16T04:00:00;98649.09;;;12.56;100.00
51972;BME280;37991;49.662;10.060;2022-09-16T04:02:25;98635.97;;;12.56;100.00
51972;BME280;37991;49.662;10.060;2022-09-16T04:04:51;98615.22;;;12.53;100.00
51972;BME280;37991;49.662;10.060;2022-09-16T04:07:17;98633.34;;;12.56;100.00
51972;BME280;37991;49.662;10.060;2022-09-16T04:09:42;98640.00;;;12.61;100.00
51972;BME280;37991;49.662;10.060;2022-09-16T04:12:07;98638.59;;;12.56;100.00
51972;BME280;37991;49.662;10.060;2022-09-16T04:14:33;98647.00;;;12.50;100.00
51972;BME280;37991;49.662;10.060;2022-09-16T04:16:59;98645.91;;;12.53;100.00
51972;BME280;37991;49.662;10.060;2022-09-16T04:19:25;98644.81;;;12.46;100.00
51972;BME280;37991;49.662;10.060;2022-09-16T04:21:50;98640.53;;;12.45;97.20
51972;BME280;37991;49.662;10.060;2022-09-16T04:24:16;98653.94;;;12.42;95.68
51972;BME280;37991;49.662;10.060;2022-09-16T04:26:41;98642.19;;;12.46;95.96
51972;BME280;37991;49.662;10.060;2022-09-16T04:29:07;98650.06;;;12.46;97.32
51972;BME280;37991;49.662;10.060;2022-09-16T04:31:32;98653.66;;;12.45;96.37
51972;BME280;37991;49.662;10.060;2022-09-16T04:34:00;98653.78;;;12.43;96.40
51972;BME280;37991;49.662;10.060;2022-09-16T04:36:25;98654.63;;;12.63;95.69
51972;BME280;37991;49.662;10.060;2022-09-16T04:38:51;98656.72;;;12.60;94.07
51972;BME280;37991;49.662;10.060;2022-09-16T04:41:22;98659.88;;;12.53;94.68
51972;BME280;37991;49.662;10.060;2022-09-16T04:43:53;98659.59;;;12.56;94.89
51972;BME280;37991;49.662;10.060;2022-09-16T04:46:21;98657.81;;;12.57;93.82
51972;BME280;37991;49.662;10.060;2022-09-16T04:48:47;98642.63;;;12.61;93.49
51972;BME280;37991;49.662;10.060;2022-09-16T04:51:13;98653.69;;;12.64;92.23
51972;BME280;37991;49.662;10.060;2022-09-16T04:53:39;98644.00;;;12.65;93.77
51972;BME280;37991;49.662;10.060;2022-09-16T04:56:19;98651.88;;;12.65;94.21
51972;BME280;37991;49.662;10.060;2022-09-16T04:58:49;98652.00;;;12.63;94.75
51972;BME280;37991;49.662;10.060;2022-09-16T05:01:23;98655.75;;;12.61;93.47
51972;BME280;37991;49.662;10.060;2022-09-16T05:03:51;98655.88;;;12.59;93.33
51972;BME280;37991;49.662;10.060;2022-09-16T05:06:19;98659.22;;;12.61;91.85
51972;BME280;37991;49.662;10.060;2022-09-16T05:08:44;98668.91;;;12.61;92.01
51972;BME280;37991;49.662;10.060;2022-09-16T05:11:12;98665.28;;;12.62;91.90
51972;BME280;37991;49.662;10.060;2022-09-16T05:13:39;98661.69;;;12.63;92.41
51972;BME280;37991;49.662;10.060;2022-09-16T05:16:07;98657.81;;;12.57;93.31
51972;BME280;37991;49.662;10.060;2022-09-16T05:18:34;98649.91;;;12.57;92.70
51972;BME280;37991;49.662;10.060;2022-09-16T05:21:01;98656.44;;;12.63;92.41
51972;BME280;37991;49.662;10.060;2022-09-16T05:23:27;98659.22;;;12.61;91.36
51972;BME280;37991;49.662;10.060;2022-09-16T05:25:53;98652.84;;;12.64;91.35
51972;BME280;37991;49.662;10.060;2022-09-16T05:28:19;98649.25;;;12.65;91.75
51972;BME280;37991;49.662;10.060;2022-09-16T05:30:44;98654.06;;;12.60;91.68
51972;BME280;37991;49.662;10.060;2022-09-16T05:33:10;98653.53;;;12.56;91.56
51972;BME280;37991;49.662;10.060;2022-09-16T05:35:35;98663.06;;;12.57;91.46
51972;BME280;37991;49.662;10.060;2022-09-16T05:38:00;98653.53;;;12.56;92.23
51972;BME280;37991;49.662;10.060;2022-09-16T05:40:26;98659.88;;;12.63;91.10
51972;BME280;37991;49.662;10.060;2022-09-16T05:42:52;98659.63;;;12.66;91.80
51972;BME280;37991;49.662;10.060;2022-09-16T05:45:17;98657.97;;;12.65;91.84
51972;BME280;37991;49.662;10.060;2022-09-16T05:47:46;98669.03;;;12.69;92.47
51972;BME280;37991;49.662;10.060;2022-09-16T05:50:12;98662.78;;;12.70;94.85
51972;BME280;37991;49.662;10.060;2022-09-16T05:52:37;98670.13;;;12.76;94.70
51972;BME280;37991;49.662;10.060;2022-09-16T05:55:03;98664.88;;;12.76;95.24
51972;BME280;37991;49.662;10.060;2022-09-16T05:57:28;98662.25;;;12.76;95.77
51972;BME280;37991;49.662;10.060;2022-09-16T05:59:53;98671.00;;;12.76;96.09
51972;BME280;37991;49.662;10.060;2022-09-16T06:02:19;98669.03;;;12.78;96.65
51972;BME280;37991;49.662;10.060;2022-09-16T06:04:44;98664.34;;;12.82;95.88
51972;BME280;37991;49.662;10.060;2022-09-16T06:07:09;98668.75;;;12.82;95.64
51972;BME280;37991;49.662;10.060;2022-09-16T06:09:35;98667.09;;;12.80;95.42
51972;BME280;37991;49.662;10.060;2022-09-16T06:12:01;98673.19;;;12.81;95.62
51972;BME280;37991;49.662;10.060;2022-09-16T06:14:26;98671.94;;;12.75;96.17
51972;BME280;37991;49.662;10.060;2022-09-16T06:16:52;98672.38;;;12.71;95.37
51972;BME280;37991;49.662;10.060;2022-09-16T06:19:17;98666.56;;;12.67;96.58
51972;BME280;37991;49.662;10.060;2022-09-16T06:21:43;98677.06;;;12.67;96.41
51972;BME280;37991;49.662;10.060;2022-09-16T06:24:10;98675.53;;;12.65;94.61
51972;BME280;37991;49.662;10.060;2022-09-16T06:26:37;98684.50;;;12.62;95.07
51972;BME280;37991;49.662;10.060;2022-09-16T06:29:03;98689.06;;;12.60;94.97
51972;BME280;37991;49.662;10.060;2022-09-16T06:31:30;98690.31;;;12.66;93.90
51972;BME280;37991;49.662;10.060;2022-09-16T06:33:56;98692.00;;;12.67;94.78
51972;BME280;37991;49.662;10.060;2022-09-16T06:36:24;98679.00;;;12.75;94.82
51972;BME280;37991;49.662;10.060;2022-09-16T06:38:50;98679.00;;;12.75;95.63
51972;BME280;37991;49.662;10.060;2022-09-16T06:41:17;98679.44;;;12.80;94.97
51972;BME280;37991;49.662;10.060;2022-09-16T06:43:43;98682.88;;;12.71;93.58
51972;BME280;37991;49.662;10.060;2022-09-16T06:46:11;98681.06;;;12.62;94.35
51972;BME280;37991;49.662;10.060;2022-09-16T06:48:39;98682.59;;;12.64;94.66
51972;BME280;37991;49.662;10.060;2022-09-16T06:51:09;98685.63;;;12.69;93.33
51972;BME280;37991;49.662;10.060;2022-09-16T06:53:35;98676.78;;;12.70;93.85
51972;BME280;37991;49.662;10.060;2022-09-16T06:56:06;98680.63;;;12.66;92.58
51972;BME280;37991;49.662;10.060;2022-09-16T06:58:33;98666.00;;;12.73;93.07
51972;BME280;37991;49.662;10.060;2022-09-16T07:01:06;98667.50;;;12.76;92.26
51972;BME280;37991;49.662;10.060;2022-09-16T07:03:33;98665.16;;;12.83;92.04
51972;BME280;37991;49.662;10.060;2022-09-16T07:06:01;98661.44;;;12.85;92.63
51972;BME280;37991;49.662;10.060;2022-09-16T07:08:30;98667.38;;;12.87;91.88
51972;BME280;37991;49.662;10.060;2022-09-16T07:11:03;98666.13;;;12.91;91.38
51972;BME280;37991;49.662;10.060;2022-09-16T07:13:28;98668.22;;;12.97;91.18
51972;BME280;37991;49.662;10.060;2022-09-16T07:16:01;98672.09;;;13.03;90.37
51972;BME280;37991;49.662;10.060;2022-09-16T07:18:28;98670.56;;;13.10;90.67
51972;BME280;37991;49.662;10.060;2022-09-16T07:23:29;98663.78;;;13.27;89.31
51972;BME280;37991;49.662;10.060;2022-09-16T07:26:05;98673.34;;;13.38;88.53
51972;BME280;37991;49.662;10.060;2022-09-16T07:28:32;98675.41;;;13.44;86.50
51972;BME280;37991;49.662;10.060;2022-09-16T07:31:06;98670.13;;;13.54;85.93
51972;BME280;37991;49.662;10.060;2022-09-16T07:33:36;98666.72;;;13.71;85.99
51972;BME280;37991;49.662;10.060;2022-09-16T07:36:03;98669.16;;;13.92;82.91
51972;BME280;37991;49.662;10.060;2022-09-16T07:38:29;98669.22;;;14.10;80.21
51972;BME280;37991;49.662;10.060;2022-09-16T07:40:55;98666.41;;;14.21;79.15
51972;BME280;37991;49.662;10.060;2022-09-16T07:43:21;98668.25;;;14.11;78.47
51972;BME280;37991;49.662;10.060;2022-09-16T07:45:46;98660.59;;;14.17;79.30
51972;BME280;37991;49.662;10.060;2022-09-16T07:48:12;98662.88;;;14.30;78.71
51972;BME280;37991;49.662;10.060;2022-09-16T07:50:37;98663.06;;;14.47;76.81
51972;BME280;37991;49.662;10.060;2022-09-16T07:53:02;98674.63;;;14.63;75.27
51972;BME280;37991;49.662;10.060;2022-09-16T07:55:28;98672.78;;;14.46;76.12
51972;BME280;37991;49.662;10.060;2022-09-16T07:57:54;98678.44;;;14.51;75.97
51972;BME280;37991;49.662;10.060;2022-09-16T08:00:20;98681.41;;;14.66;75.80
51972;BME280;37991;49.662;10.060;2022-09-16T08:02:46;98679.38;;;14.60;75.55
51972;BME280;37991;49.662;10.060;2022-09-16T08:05:11;98683.00;;;14.59;76.59
51972;BME280;37991;49.662;10.060;2022-09-16T08:07:37;98680.22;;;14.78;75.40
51972;BME280;37991;49.662;10.060;2022-09-16T08:10:03;98682.63;;;14.72;75.49
51972;BME280;37991;49.662;10.060;2022-09-16T08:12:28;98685.56;;;14.69;77.48
51972;BME280;37991;49.662;10.060;2022-09-16T08:14:57;98680.19;;;14.60;77.14
51972;BME280;37991;49.662;10.060;2022-09-16T08:17:24;98689.78;;;14.61;75.30
51972;BME280;37991;49.662;10.060;2022-09-16T08:19:49;98685.69;;;14.67;75.50
51972;BME280;37991;49.662;10.060;2022-09-16T08:22:15;98684.03;;;14.66;75.79
51972;BME280;37991;49.662;10.060;2022-09-16T08:24:40;98686.91;;;14.73;76.30
51972;BME280;37991;49.662;10.060;2022-09-16T08:27:06;98681.56;;;14.82;72.77
51972;BME280;37991;49.662;10.060;2022-09-16T08:29:32;98682.63;;;14.72;74.30
51972;BME280;37991;49.662;10.060;2022-09-16T08:31:57;98682.84;;;14.78;75.27
51972;BME280;37991;49.662;10.060;2022-09-16T08:34:22;98685.63;;;14.77;75.21
51972;BME280;37991;49.662;10.060;2022-09-16T08:36:48;98678.56;;;14.77;74.66
51972;BME280;37991;49.662;10.060;2022-09-16T08:39:13;98681.56;;;14.82;76.03
51972;BME280;37991;49.662;10.060;2022-09-16T08:50:03;98690.38;;;15.09;72.13
51972;BME280;37991;49.662;10.060;2022-09-16T08:52:32;98678.03;;;14.92;70.83
51972;BME280;37991;49.662;10.060;2022-09-16T08:55:08;98684.28;;;14.91;70.53
51972;BME280;37991;49.662;10.060;2022-09-16T08:57:41;98686.53;;;14.85;72.00
51972;BME280;37991;49.662;10.060;2022-09-16T09:00:16;98684.72;;;14.86;72.72
51972;BME280;37991;49.662;10.060;2022-09-16T09:02:55;98684.13;;;14.92;73.53
51972;BME280;37991;49.662;10.060;2022-09-16T09:05:35;98688.41;;;14.93;74.06
51972;BME280;37991;49.662;10.060;2022-09-16T09:11:28;98685.94;;;14.92;75.43
51972;BME280;37991;49.662;10.060;2022-09-16T09:14:20;98682.38;;;14.83;75.96
51972;BME280;37991;49.662;10.060;2022-09-16T09:16:57;98675.53;;;14.72;77.04
51972;BME280;37991;49.662;10.060;2022-09-16T09:24:50;98670.09;;;14.74;76.03
51972;BME280;37991;49.662;10.060;2022-09-16T09:27:25;98665.31;;;14.87;76.23
51972;BME280;37991;49.662;10.060;2022-09-16T09:32:52;98670.03;;;14.65;76.62
51972;BME280;37991;49.662;10.060;2022-09-16T09:41:11;98654.81;;;14.59;76.50
51972;BME280;37991;49.662;10.060;2022-09-16T09:43:54;98662.84;;;14.58;76.64
51972;BME280;37991;49.662;10.060;2022-09-16T09:46:28;98668.53;;;14.63;77.72
51972;BME280;37991;49.662;10.060;2022-09-16T09:49:24;98662.50;;;14.71;77.75
51972;BME280;37991;49.662;10.060;2022-09-16T09:54:30;98663.25;;;14.63;77.77
51972;BME280;37991;49.662;10.060;2022-09-16T09:57:01;98666.19;;;14.60;79.01
51972;BME280;37991;49.662;10.060;2022-09-16T09:59:40;98661.97;;;14.67;77.81
51972;BME280;37991;49.662;10.060;2022-09-16T10:02:20;98667.09;;;14.69;78.06
51972;BME280;37991;49.662;10.060;2022-09-16T10:04:46;98664.06;;;14.63;78.48
51972;BME280;37991;49.662;10.060;2022-09-16T10:07:14;98662.44;;;14.62;77.98
51972;BME280;37991;49.662;10.060;2022-09-16T10:09:48;98662.66;;;14.69;78.61
51972;BME280;37991;49.662;10.060;2022-09-16T10:12:29;98658.59;;;14.75;78.69
51972;BME280;37991;49.662;10.060;2022-09-16T10:14:55;98658.59;;;14.75;78.33
51972;BME280;37991;49.662;10.060;2022-09-16T10:17:21;98662.19;;;14.74;78.30
51972;BME280;37991;49.662;10.060;2022-09-16T10:19:58;98657.38;;;14.69;77.47
51972;BME280;37991;49.662;10.060;2022-09-16T10:22:27;98651.50;;;14.75;78.03
51972;BME280;37991;49.662;10.060;2022-09-16T10:25:05;98654.06;;;14.85;77.12
51972;BME280;37991;49.662;10.060;2022-09-16T10:27:35;98646.38;;;14.92;77.40
51972;BME280;37991;49.662;10.060;2022-09-16T10:30:18;98646.47;;;15.00;76.23
51972;BME280;37991;49.662;10.060;2022-09-16T10:35:23;98637.69;;;15.17;75.21
51972;BME280;37991;49.662;10.060;2022-09-16T10:37:52;98643.44;;;15.13;75.81
51972;BME280;37991;49.662;10.060;2022-09-16T10:40:19;98638.78;;;15.06;75.74
51972;BME280;37991;49.662;10.060;2022-09-16T10:42:47;98629.78;;;15.17;75.95
51972;BME280;37991;49.662;10.060;2022-09-16T10:45:18;98640.72;;;15.04;74.84
51972;BME280;37991;49.662;10.060;2022-09-16T10:47:49;98635.91;;;15.00;74.91
51972;BME280;37991;49.662;10.060;2022-09-16T10:50:18;98631.06;;;15.13;74.16
51972;BME280;37991;49.662;10.060;2022-09-16T10:52:46;98626.44;;;15.33;72.81
51972;BME280;37991;49.662;10.060;2022-09-16T10:55:32;98631.97;;;15.48;72.96
51972;BME280;37991;49.662;10.060;2022-09-16T10:58:17;98627.56;;;15.56;70.40
51972;BME280;37991;49.662;10.060;2022-09-16T11:06:37;98624.94;;;15.83;67.51
51972;BME280;37991;49.662;10.060;2022-09-16T11:17:11;98631.63;;;15.69;66.52
51972;BME280;37991;49.662;10.060;2022-09-16T11:22:51;98626.59;;;15.57;68.34
51972;BME280;37991;49.662;10.060;2022-09-16T11:31:47;98616.38;;;15.63;68.28
51972;BME280;37991;49.662;10.060;2022-09-16T11:34:30;98617.75;;;15.67;68.79
51972;BME280;37991;49.662;10.060;2022-09-16T11:37:05;98611.00;;;15.72;67.88
51972;BME280;37991;49.662;10.060;2022-09-16T11:39:45;98611.81;;;15.73;67.51
51972;BME280;37991;49.662;10.060;2022-09-16T11:48:07;98610.06;;;15.81;67.31
51972;BME280;37991;49.662;10.060;2022-09-16T11:56:00;98598.63;;;16.15;63.53
51972;BME280;37991;49.662;10.060;2022-09-16T12:01:12;98595.88;;;16.41;62.08
51972;BME280;37991;49.662;10.060;2022-09-16T12:03:54;98593.44;;;16.56;62.11
51972;BME280;37991;49.662;10.060;2022-09-16T12:06:25;98596.59;;;16.60;60.05
51972;BME280;37991;49.662;10.060;2022-09-16T12:09:08;98583.50;;;16.74;58.90
51972;BME280;37991;49.662;10.060;2022-09-16T12:11:39;98592.81;;;16.79;59.92
51972;BME280;37991;49.662;10.060;2022-09-16T12:14:12;98589.84;;;16.82;59.80
51972;BME280;37991;49.662;10.060;2022-09-16T12:16:58;98593.63;;;16.63;60.47
51972;BME280;37991;49.662;10.060;2022-09-16T12:19:29;98587.44;;;16.30;62.07
51972;BME280;37991;49.662;10.060;2022-09-16T12:22:17;98593.34;;;16.23;61.38
51972;BME280;37991;49.662;10.060;2022-09-16T12:27:31;98589.75;;;16.24;62.22
51972;BME280;37991;49.662;10.060;2022-09-16T12:30:07;98597.94;;;16.05;61.47
51972;BME280;37991;49.662;10.060;2022-09-16T12:32:47;98592.81;;;16.03;61.96
51972;BME280;37991;49.662;10.060;2022-09-16T12:35:21;98586.53;;;16.04;62.53
51972;BME280;37991;49.662;10.060;2022-09-16T12:37:51;98594.13;;;15.99;63.21
51972;BME280;37991;49.662;10.060;2022-09-16T12:40:24;98588.53;;;16.02;63.20
51972;BME280;37991;49.662;10.060;2022-09-16T12:46:16;98591.31;;;16.01;62.34
51972;BME280;37991;49.662;10.060;2022-09-16T12:56:49;98576.22;;;16.36;60.53
51972;BME280;37991;49.662;10.060;2022-09-16T12:59:48;98564.78;;;16.27;61.82
51972;BME280;37991;49.662;10.060;2022-09-16T13:02:18;98572.94;;;16.34;61.23
51972;BME280;37991;49.662;10.060;2022-09-16T13:04:51;98578.53;;;16.31;60.51
51972;BME280;37991;49.662;10.060;2022-09-16T13:07:21;98577.19;;;16.26;60.49
51972;BME280;37991;49.662;10.060;2022-09-16T13:09:48;98569.81;;;16.46;59.96
51972;BME280;37991;49.662;10.060;2022-09-16T13:12:25;98571.28;;;16.41;60.86
51972;BME280;37991;49.662;10.060;2022-09-16T13:14:57;98560.22;;;16.37;59.94
51972;BME280;37991;49.662;10.060;2022-09-16T13:17:38;98558.53;;;16.36;59.58
51972;BME280;37991;49.662;10.060;2022-09-16T13:20:11;98547.97;;;16.36;60.49
51972;BME280;37991;49.662;10.060;2022-09-16T13:30:34;98551.63;;;16.60;56.58
51972;BME280;37991;49.662;10.060;2022-09-16T13:38:21;98549.13;;;16.58;58.54
51972;BME280;37991;49.662;10.060;2022-09-16T13:40:56;98545.00;;;16.56;57.14
51972;BME280;37991;49.662;10.060;2022-09-16T13:46:10;98547.66;;;16.31;58.04
51972;BME280;37991;49.662;10.060;2022-09-16T13:48:44;98555.56;;;16.31;59.03
51972;BME280;37991;49.662;10.060;2022-09-16T13:51:19;98556.88;;;16.35;59.47
51972;BME280;37991;49.662;10.060;2022-09-16T13:53:48;98560.69;;;16.33;59.20
51972;BME280;37991;49.662;10.060;2022-09-16T13:56:22;98549.63;;;16.37;58.76
51972;BME280;37991;49.662;10.060;2022-09-16T13:59:15;98545.81;;;16.40;58.58
51972;BME280;37991;49.662;10.060;2022-09-16T14:01:56;98543.38;;;16.46;59.48
51972;BME280;37991;49.662;10.060;2022-09-16T14:07:45;98547.81;;;16.46;59.80
51972;BME280;37991;49.662;10.060;2022-09-16T14:10:33;98546.00;;;16.38;59.82
51972;BME280;37991;49.662;10.060;2022-09-16T14:13:34;98550.31;;;16.47;60.56
51972;BME280;37991;49.662;10.060;2022-09-16T14:15:54;98543.16;;;16.40;59.68
51972;BME280;37991;49.662;10.060;2022-09-16T14:18:27;98559.38;;;16.45;61.18
51972;BME280;37991;49.662;10.060;2022-09-16T14:23:26;98560.53;;;16.34;63.25
51972;BME280;37991;49.662;10.060;2022-09-16T14:25:52;98569.09;;;16.28;64.07
51972;BME280;37991;49.662;10.060;2022-09-16T14:28:27;98562.31;;;16.25;65.91
51972;BME280;37991;49.662;10.060;2022-09-16T14:30:58;98560.19;;;16.21;65.50
51972;BME280;37991;49.662;10.060;2022-09-16T14:34:11;98571.06;;;16.26;65.82
51972;BME280;37991;49.662;10.060;2022-09-16T14:36:28;98561.00;;;16.21;65.48
51972;BME280;37991;49.662;10.060;2022-09-16T14:39:24;98565.47;;;16.29;65.72
51972;BME280;37991;49.662;10.060;2022-09-16T14:42:04;98566.78;;;16.25;64.26
51972;BME280;37991;49.662;10.060;2022-09-16T14:44:44;98565.94;;;16.08;64.60
51972;BME280;37991;49.662;10.060;2022-09-16T14:47:22;98562.63;;;16.06;65.90
51972;BME280;37991;49.662;10.060;2022-09-16T14:49:56;98573.94;;;15.90;66.52
51972;BME280;37991;49.662;10.060;2022-09-16T14:52:27;98569.56;;;15.73;66.26
51972;BME280;37991;49.662;10.060;2022-09-16T14:54:55;98582.94;;;15.71;66.10
51972;BME280;37991;49.662;10.060;2022-09-16T14:57:26;98578.34;;;15.73;65.81
51972;BME280;37991;49.662;10.060;2022-09-16T14:59:55;98592.41;;;15.82;65.36
51972;BME280;37991;49.662;10.060;2022-09-16T15:02:24;98592.44;;;15.90;63.96
51972;BME280;37991;49.662;10.060;2022-09-16T15:04:55;98582.81;;;15.81;64.52
51972;BME280;37991;49.662;10.060;2022-09-16T15:07:29;98591.28;;;15.58;65.31
51972;BME280;37991;49.662;10.060;2022-09-16T15:12:25;98591.69;;;15.72;65.27
51972;BME280;37991;49.662;10.060;2022-09-16T15:14:52;98580.31;;;15.71;65.70
51972;BME280;37991;49.662;10.060;2022-09-16T15:17:20;98585.19;;;15.66;64.11
51972;BME280;37991;49.662;10.060;2022-09-16T15:19:56;98583.19;;;15.60;64.37
51972;BME280;37991;49.662;10.060;2022-09-16T15:22:23;98579.91;;;15.58;64.69
51972;BME280;37991;49.662;10.060;2022-09-16T15:24:52;98576.44;;;15.57;65.52
51972;BME280;37991;49.662;10.060;2022-09-16T15:27:26;98580.41;;;15.62;67.19
51972;BME280;37991;49.662;10.060;2022-09-16T15:29:55;98569.13;;;15.51;66.89
51972;BME280;37991;49.662;10.060;2022-09-16T15:32:24;98568.44;;;15.41;67.93
51972;BME280;37991;49.662;10.060;2022-09-16T15:35:20;98570.38;;;15.39;68.02